createdAt,value
2022-07-29T00:01:53.305Z,23.07
2022-07-29T00:04:21.461Z,23.09
2022-07-29T00:06:48.497Z,23.15
2022-07-29T00:09:15.211Z,23.07
2022-07-29T00:11:41.897Z,23.02
2022-07-29T00:14:08.771Z,23.11
2022-07-29T00:16:35.905Z,23.01
2022-07-29T00:19:02.659Z,23.06
2022-07-29T00:21:29.435Z,23.02
2022-07-29T00:23:56.081Z,23.06
2022-07-29T00:26:22.813Z,23.03
2022-07-29T00:28:49.409Z,22.96
2022-07-29T00:31:16.219Z,22.90
2022-07-29T00:33:42.892Z,22.97
2022-07-29T00:36:09.494Z,22.95
2022-07-29T00:38:36.092Z,22.77
2022-07-29T00:41:03.019Z,22.76
2022-07-29T00:43:29.619Z,22.89
2022-07-29T00:45:56.242Z,22.83
2022-07-29T00:48:22.892Z,22.74
2022-07-29T00:50:51.048Z,22.77
2022-07-29T00:53:17.940Z,22.78
2022-07-29T00:55:44.599Z,22.72
2022-07-29T00:58:14.482Z,22.78
2022-07-29T01:00:43.044Z,22.70
2022-07-29T01:03:12.586Z,22.80
2022-07-29T01:05:50.020Z,22.69
2022-07-29T01:08:19.764Z,22.70
2022-07-29T01:10:47.914Z,22.68
2022-07-29T01:13:17.045Z,22.65
2022-07-29T01:16:24.134Z,22.57
2022-07-29T01:18:54.134Z,22.65
2022-07-29T01:21:51.947Z,22.60
2022-07-29T01:24:40.036Z,22.68
2022-07-29T01:27:24.756Z,22.59
2022-07-29T01:29:58.277Z,22.53
2022-07-29T01:32:30.130Z,22.50
2022-07-29T01:34:59.489Z,22.37
2022-07-29T01:37:31.604Z,22.48
2022-07-29T01:40:01.146Z,22.45
2022-07-29T01:42:40.105Z,22.39
2022-07-29T01:45:15.509Z,22.45
2022-07-29T01:47:47.521Z,22.35
2022-07-29T01:50:18.486Z,22.50
2022-07-29T01:52:50.608Z,22.36
2022-07-29T01:55:21.457Z,22.33
2022-07-29T01:57:49.516Z,22.42
2022-07-29T02:00:17.081Z,22.32
2022-07-29T02:02:46.546Z,22.20
2022-07-29T02:05:16.761Z,22.21
2022-07-29T02:07:45.047Z,22.14
2022-07-29T02:10:14.010Z,22.11
2022-07-29T02:12:43.593Z,22.04
2022-07-29T02:15:18.066Z,21.97
2022-07-29T02:17:56.072Z,22.11
2022-07-29T02:20:26.262Z,21.84
2022-07-29T02:22:54.890Z,21.82
2022-07-29T02:25:24.998Z,21.46
2022-07-29T02:28:04.922Z,21.50
2022-07-29T02:30:32.907Z,21.54
2022-07-29T02:33:00.601Z,21.62
2022-07-29T02:35:28.150Z,21.66
2022-07-29T02:38:21.607Z,21.52
2022-07-29T02:40:51.625Z,21.50
2022-07-29T02:43:19.632Z,21.52
2022-07-29T02:45:48.371Z,21.40
2022-07-29T02:48:23.492Z,21.47
2022-07-29T02:50:56.393Z,21.44
2022-07-29T02:53:28.807Z,21.46
2022-07-29T02:56:15.631Z,21.40
2022-07-29T02:58:47.930Z,21.35
2022-07-29T03:01:21.915Z,21.03
2022-07-29T03:03:50.571Z,20.89
2022-07-29T03:06:28.577Z,20.97
2022-07-29T03:09:10.492Z,21.05
2022-07-29T03:11:49.552Z,20.88
2022-07-29T03:14:19.348Z,20.96
2022-07-29T03:16:46.789Z,21.07
2022-07-29T03:19:14.167Z,21.15
2022-07-29T03:21:40.896Z,21.21
2022-07-29T03:24:10.486Z,21.16
2022-07-29T03:26:38.476Z,21.12
2022-07-29T03:29:05.147Z,21.10
2022-07-29T03:31:33.574Z,21.05
2022-07-29T03:34:00.519Z,21.05
2022-07-29T03:36:27.229Z,21.15
2022-07-29T03:38:54.461Z,21.35
2022-07-29T03:41:23.595Z,21.18
2022-07-29T03:43:52.818Z,21.16
2022-07-29T03:46:24.453Z,21.21
2022-07-29T03:48:57.569Z,21.23
2022-07-29T03:51:33.852Z,21.31
2022-07-29T03:54:07.907Z,21.18
2022-07-29T03:56:40.790Z,21.35
2022-07-29T03:59:08.702Z,21.34
2022-07-29T04:01:36.380Z,21.25
2022-07-29T04:04:05.632Z,21.17
2022-07-29T04:06:40.417Z,21.37
2022-07-29T04:09:07.045Z,21.61
2022-07-29T04:11:56.893Z,21.72
2022-07-29T04:14:24.492Z,21.78
2022-07-29T04:16:51.152Z,22.15
2022-07-29T04:19:17.724Z,22.14
2022-07-29T04:21:46.142Z,22.17
2022-07-29T04:24:13.122Z,22.34
2022-07-29T04:26:39.897Z,22.55
2022-07-29T04:29:06.572Z,22.64
2022-07-29T04:31:33.277Z,22.89
2022-07-29T04:33:59.956Z,22.93
2022-07-29T04:36:29.388Z,23.76
2022-07-29T04:38:57.067Z,24.39
2022-07-29T04:41:23.659Z,24.65
2022-07-29T04:44:02.059Z,24.09
2022-07-29T04:46:29.172Z,25.03
2022-07-29T04:48:56.078Z,25.24
2022-07-29T04:51:22.881Z,25.50
2022-07-29T04:53:49.749Z,25.05
2022-07-29T04:56:16.350Z,25.79
2022-07-29T04:58:43.000Z,26.96
2022-07-29T05:01:09.716Z,26.90
2022-07-29T05:03:36.346Z,28.22
2022-07-29T05:06:02.992Z,29.52
2022-07-29T05:08:29.638Z,30.24
2022-07-29T05:10:56.298Z,30.74
2022-07-29T05:13:22.948Z,29.18
2022-07-29T05:15:49.648Z,28.24
2022-07-29T05:18:16.662Z,29.61
2022-07-29T05:20:43.319Z,31.15
2022-07-29T05:23:10.100Z,30.51
2022-07-29T05:25:40.816Z,30.97
2022-07-29T05:28:10.849Z,31.16
2022-07-29T05:30:37.566Z,32.80
2022-07-29T05:33:04.319Z,30.46
2022-07-29T05:35:30.963Z,29.25
2022-07-29T05:37:57.574Z,30.00
2022-07-29T05:40:24.206Z,31.50
2022-07-29T05:42:50.924Z,32.01
2022-07-29T05:45:17.544Z,33.26
2022-07-29T05:47:44.266Z,32.93
2022-07-29T05:50:10.946Z,33.21
2022-07-29T05:52:37.622Z,32.98
2022-07-29T05:55:06.572Z,33.95
2022-07-29T05:57:33.644Z,34.17
2022-07-29T06:00:00.333Z,32.27
2022-07-29T06:02:26.993Z,33.18
2022-07-29T06:04:53.762Z,30.37
2022-07-29T06:07:20.824Z,31.70
2022-07-29T06:09:47.453Z,32.00
2022-07-29T06:12:14.161Z,32.35
2022-07-29T06:14:41.121Z,31.20
2022-07-29T06:17:07.961Z,31.61
2022-07-29T06:19:37.767Z,32.56
2022-07-29T06:22:05.006Z,32.96
2022-07-29T06:24:31.761Z,31.63
2022-07-29T06:26:59.459Z,32.44
2022-07-29T06:29:26.285Z,33.12
2022-07-29T06:31:53.125Z,33.05
2022-07-29T06:34:20.586Z,32.68
2022-07-29T06:36:47.597Z,32.96
2022-07-29T06:39:15.480Z,32.14
2022-07-29T06:41:42.252Z,34.53
2022-07-29T06:44:09.000Z,34.52
2022-07-29T06:46:35.728Z,34.83
2022-07-29T06:49:03.318Z,33.92
2022-07-29T06:51:30.562Z,35.66
2022-07-29T06:54:02.425Z,35.76
2022-07-29T06:56:39.492Z,38.17
2022-07-29T06:59:08.461Z,35.58
2022-07-29T07:01:36.927Z,35.84
2022-07-29T07:04:03.620Z,36.05
2022-07-29T07:06:30.358Z,37.70
2022-07-29T07:08:56.992Z,35.50
2022-07-29T07:11:23.682Z,36.69
2022-07-29T07:13:50.315Z,37.75
2022-07-29T07:16:17.261Z,35.83
2022-07-29T07:18:46.073Z,36.81
2022-07-29T07:21:19.207Z,37.97
2022-07-29T07:23:47.180Z,36.34
2022-07-29T07:26:13.925Z,37.14
2022-07-29T07:28:40.582Z,38.72
2022-07-29T07:31:07.295Z,38.59
2022-07-29T07:33:33.940Z,36.40
2022-07-29T07:36:00.619Z,33.90
2022-07-29T07:38:27.237Z,33.32
2022-07-29T07:40:53.889Z,35.68
2022-07-29T07:43:20.585Z,35.79
2022-07-29T07:45:47.242Z,33.18
2022-07-29T07:48:13.963Z,34.91
2022-07-29T07:50:40.633Z,34.78
2022-07-29T07:53:07.466Z,37.60
2022-07-29T07:55:53.560Z,38.61
2022-07-29T07:58:20.797Z,35.06
2022-07-29T08:00:48.306Z,37.91
2022-07-29T08:03:16.682Z,37.68
2022-07-29T08:05:43.633Z,39.48
2022-07-29T08:08:10.254Z,36.78
2022-07-29T08:10:56.669Z,37.04
2022-07-29T08:13:28.233Z,37.24
2022-07-29T08:15:58.981Z,38.66
2022-07-29T08:18:30.988Z,38.95
2022-07-29T08:20:58.749Z,38.76
2022-07-29T08:23:25.612Z,36.69
2022-07-29T08:25:52.350Z,36.38
2022-07-29T08:28:21.758Z,36.29
2022-07-29T08:30:52.850Z,38.00
2022-07-29T08:33:19.523Z,37.51
2022-07-29T08:35:46.660Z,36.98
2022-07-29T08:38:13.337Z,37.18
2022-07-29T08:40:40.471Z,37.71
2022-07-29T08:43:09.184Z,38.11
2022-07-29T08:45:47.718Z,37.61
2022-07-29T08:48:17.377Z,38.56
2022-07-29T08:50:46.567Z,37.61
2022-07-29T08:53:16.525Z,38.34
2022-07-29T08:55:48.988Z,38.36
2022-07-29T08:58:16.545Z,37.02
2022-07-29T09:00:52.540Z,36.03
2022-07-29T09:03:21.375Z,36.91
2022-07-29T09:05:48.801Z,35.62
2022-07-29T09:08:17.219Z,36.10
2022-07-29T09:10:44.829Z,35.29
2022-07-29T09:13:11.552Z,35.13
2022-07-29T09:15:38.186Z,36.14
2022-07-29T09:18:04.831Z,36.08
2022-07-29T09:20:51.395Z,36.56
2022-07-29T09:23:22.931Z,36.79
2022-07-29T09:25:51.070Z,36.20
2022-07-29T09:28:19.108Z,34.89
2022-07-29T09:30:57.504Z,35.28
2022-07-29T09:33:25.237Z,35.13
2022-07-29T09:36:09.368Z,35.27
2022-07-29T09:38:38.283Z,35.51
2022-07-29T09:41:06.943Z,35.90
2022-07-29T09:43:34.855Z,36.00
2022-07-29T09:46:12.718Z,36.43
2022-07-29T09:48:39.521Z,36.27
2022-07-29T09:51:07.473Z,35.91
2022-07-29T09:53:38.427Z,35.57
2022-07-29T09:56:06.056Z,35.02
2022-07-29T09:58:34.743Z,35.24
2022-07-29T10:01:02.108Z,36.49
2022-07-29T10:03:28.937Z,35.50
2022-07-29T10:06:14.588Z,35.90
2022-07-29T10:08:42.642Z,36.61
2022-07-29T10:11:15.156Z,36.74
2022-07-29T10:13:43.688Z,36.43
2022-07-29T10:16:11.071Z,36.77
2022-07-29T10:18:42.275Z,36.38
2022-07-29T10:21:10.375Z,36.64
2022-07-29T10:23:46.293Z,36.74
2022-07-29T10:26:14.084Z,37.07
2022-07-29T10:28:40.895Z,35.08
2022-07-29T10:31:14.074Z,36.30
2022-07-29T10:34:02.364Z,35.49
2022-07-29T10:36:57.690Z,36.46
2022-07-29T10:39:44.608Z,37.79
2022-07-29T10:42:16.877Z,38.11
2022-07-29T10:44:44.819Z,37.45
2022-07-29T10:47:32.282Z,37.73
2022-07-29T10:50:04.770Z,35.14
2022-07-29T10:52:57.999Z,35.99
2022-07-29T10:55:43.361Z,36.43
2022-07-29T10:58:26.906Z,35.52
2022-07-29T11:00:56.325Z,34.84
2022-07-29T11:03:49.525Z,35.89
2022-07-29T11:06:18.004Z,36.35
2022-07-29T11:09:25.800Z,36.74
2022-07-29T11:12:02.949Z,36.17
2022-07-29T11:14:52.924Z,35.57
2022-07-29T11:17:19.920Z,35.31
2022-07-29T11:19:52.228Z,34.12
2022-07-29T11:22:43.168Z,35.07
2022-07-29T11:25:18.911Z,35.26
2022-07-29T11:28:16.705Z,35.25
2022-07-29T11:30:54.871Z,36.53
2022-07-29T11:33:54.071Z,37.26
2022-07-29T11:36:19.791Z,37.15
2022-07-29T11:39:27.215Z,36.76
2022-07-29T11:42:28.516Z,35.31
2022-07-29T11:45:04.317Z,34.53
2022-07-29T11:47:49.289Z,33.93
2022-07-29T11:50:31.408Z,33.27
2022-07-29T11:53:01.056Z,33.45
2022-07-29T11:55:38.669Z,33.71
2022-07-29T12:01:15.232Z,35.58
2022-07-29T12:03:43.719Z,35.71
2022-07-29T12:06:18.273Z,36.56
2022-07-29T12:07:03.661Z,34.16
2022-07-29T12:08:48.059Z,36.77
2022-07-29T12:11:21.256Z,36.45
2022-07-29T12:13:49.915Z,37.43
2022-07-29T12:16:16.823Z,37.12
2022-07-29T12:18:59.974Z,36.34
2022-07-29T12:21:28.891Z,36.60
2022-07-29T12:24:01.761Z,38.02
2022-07-29T12:26:31.733Z,37.56
2022-07-29T12:29:11.475Z,37.93
2022-07-29T12:31:45.488Z,38.13
2022-07-29T12:34:14.199Z,37.49
2022-07-29T12:36:42.410Z,36.67
2022-07-29T12:39:10.296Z,35.42
2022-07-29T12:41:37.376Z,36.06
2022-07-29T12:44:04.228Z,36.12
2022-07-29T12:46:30.932Z,36.71
2022-07-29T12:48:58.456Z,37.04
2022-07-29T12:51:41.742Z,37.96
2022-07-29T12:54:14.555Z,37.95
2022-07-29T12:56:45.334Z,38.37
2022-07-29T12:59:21.922Z,38.72
2022-07-29T13:01:52.275Z,38.21
2022-07-29T13:04:27.502Z,37.41
2022-07-29T13:07:54.073Z,38.05
2022-07-29T13:10:18.025Z,37.10
2022-07-29T13:13:06.633Z,37.03
2022-07-29T13:15:34.004Z,37.69
2022-07-29T13:18:00.807Z,38.14
2022-07-29T13:20:30.720Z,38.16
2022-07-29T13:23:01.825Z,38.56
2022-07-29T13:25:33.095Z,37.58
2022-07-29T13:28:00.484Z,37.93
2022-07-29T13:30:27.264Z,37.49
2022-07-29T13:32:54.049Z,36.98
2022-07-29T13:35:21.395Z,36.22
2022-07-29T13:37:48.220Z,37.25
2022-07-29T13:40:15.141Z,37.58
2022-07-29T13:42:42.578Z,38.53
2022-07-29T13:45:10.649Z,37.17
2022-07-29T13:47:37.849Z,36.99
2022-07-29T13:50:06.827Z,37.10
2022-07-29T13:52:34.381Z,37.81
2022-07-29T13:55:01.512Z,37.55
2022-07-29T13:57:28.758Z,37.32
2022-07-29T13:59:55.701Z,37.10
2022-07-29T14:02:25.637Z,36.90
2022-07-29T14:04:54.582Z,36.05
2022-07-29T14:07:21.766Z,36.43
2022-07-29T14:09:48.425Z,36.78
2022-07-29T14:12:15.146Z,37.47
2022-07-29T14:14:42.552Z,37.26
2022-07-29T14:17:10.130Z,36.64
2022-07-29T14:19:36.979Z,36.28
2022-07-29T14:22:05.701Z,36.29
2022-07-29T14:24:36.420Z,35.27
2022-07-29T14:27:04.639Z,35.41
2022-07-29T14:29:37.148Z,35.55
2022-07-29T14:32:08.700Z,34.92
2022-07-29T14:34:36.693Z,35.43
2022-07-29T14:37:06.601Z,35.57
2022-07-29T14:39:36.961Z,35.23
2022-07-29T14:42:06.500Z,35.13
2022-07-29T14:44:33.177Z,34.52
2022-07-29T14:47:00.835Z,34.65
2022-07-29T14:49:28.433Z,34.81
2022-07-29T14:51:55.366Z,35.32
2022-07-29T14:54:22.191Z,35.01
2022-07-29T14:56:50.382Z,35.12
2022-07-29T14:59:17.467Z,35.32
2022-07-29T15:01:44.306Z,35.14
2022-07-29T15:04:10.906Z,35.07
2022-07-29T15:06:38.870Z,35.35
2022-07-29T15:09:05.657Z,35.30
2022-07-29T15:11:32.386Z,35.41
2022-07-29T15:14:05.263Z,35.54
2022-07-29T15:16:31.917Z,35.53
2022-07-29T15:19:01.173Z,35.27
2022-07-29T15:21:28.663Z,35.47
2022-07-29T15:23:55.434Z,35.66
2022-07-29T15:26:22.477Z,35.00
2022-07-29T15:28:49.253Z,35.15
2022-07-29T15:31:16.070Z,35.05
2022-07-29T15:33:42.822Z,35.06
2022-07-29T15:36:09.706Z,34.52
2022-07-29T15:38:41.788Z,34.71
2022-07-29T15:41:08.925Z,34.63
2022-07-29T15:43:38.461Z,34.86
2022-07-29T15:46:23.981Z,35.01
2022-07-29T15:48:50.789Z,34.77
2022-07-29T15:51:17.488Z,34.16
2022-07-29T15:53:44.120Z,34.33
2022-07-29T15:56:21.027Z,34.39
2022-07-29T15:58:47.614Z,34.62
2022-07-29T16:01:14.657Z,33.76
2022-07-29T16:03:45.957Z,34.19
2022-07-29T16:06:13.314Z,34.35
2022-07-29T16:08:40.008Z,34.36
2022-07-29T16:11:06.655Z,34.48
2022-07-29T16:13:33.501Z,34.16
2022-07-29T16:16:02.843Z,34.13
2022-07-29T16:18:30.497Z,33.84
2022-07-29T16:20:57.729Z,33.81
2022-07-29T16:23:24.826Z,33.63
2022-07-29T16:25:59.770Z,33.67
2022-07-29T16:28:27.639Z,33.59
2022-07-29T16:30:54.424Z,33.57
2022-07-29T16:33:21.080Z,33.46
2022-07-29T16:35:47.661Z,33.15
2022-07-29T16:38:14.277Z,33.19
2022-07-29T16:40:40.964Z,33.21
2022-07-29T16:43:08.080Z,33.25
2022-07-29T16:45:45.343Z,33.18
2022-07-29T16:48:14.340Z,33.06
2022-07-29T16:50:43.286Z,32.99
2022-07-29T16:53:10.855Z,32.96
2022-07-29T16:55:37.640Z,32.97
2022-07-29T16:58:04.733Z,32.91
2022-07-29T17:00:31.748Z,32.79
2022-07-29T17:03:00.033Z,32.71
2022-07-29T17:05:29.634Z,32.66
2022-07-29T17:08:16.478Z,32.62
2022-07-29T17:10:43.096Z,32.58
2022-07-29T17:13:09.783Z,32.46
2022-07-29T17:15:36.671Z,32.50
2022-07-29T17:18:12.261Z,32.25
2022-07-29T17:20:41.063Z,32.26
2022-07-29T17:23:07.776Z,32.09
2022-07-29T17:25:34.485Z,32.05
2022-07-29T17:28:01.601Z,31.97
2022-07-29T17:30:29.359Z,31.75
2022-07-29T17:32:56.149Z,31.43
2022-07-29T17:35:41.325Z,31.18
2022-07-29T17:38:07.983Z,31.09
2022-07-29T17:40:34.571Z,30.92
2022-07-29T17:43:01.228Z,30.67
2022-07-29T17:45:50.382Z,30.42
2022-07-29T17:48:14.685Z,30.14
2022-07-29T17:50:41.303Z,29.91
2022-07-29T17:53:15.532Z,29.75
2022-07-29T17:55:45.375Z,29.43
2022-07-29T17:58:12.521Z,29.21
2022-07-29T18:00:39.379Z,29.13
2022-07-29T18:03:06.391Z,28.90
2022-07-29T18:05:33.567Z,28.67
2022-07-29T18:08:00.214Z,28.50
2022-07-29T18:10:27.008Z,28.38
2022-07-29T18:12:53.918Z,28.19
2022-07-29T18:15:20.557Z,28.02
2022-07-29T18:17:56.870Z,27.82
2022-07-29T18:20:27.831Z,27.72
2022-07-29T18:22:54.553Z,27.46
2022-07-29T18:25:22.146Z,27.42
2022-07-29T18:27:48.831Z,27.26
2022-07-29T18:30:15.668Z,27.08
2022-07-29T18:32:54.372Z,26.96
2022-07-29T18:35:29.340Z,26.86
2022-07-29T18:38:01.948Z,26.68
2022-07-29T18:40:30.048Z,26.54
2022-07-29T18:42:57.204Z,26.44
2022-07-29T18:45:28.543Z,26.30
2022-07-29T18:47:56.438Z,26.24
2022-07-29T18:50:29.013Z,26.26
2022-07-29T18:52:58.650Z,26.21
2022-07-29T18:55:26.267Z,26.16
2022-07-29T18:57:54.987Z,26.19
2022-07-29T19:00:24.011Z,26.17
2022-07-29T19:02:51.199Z,26.10
2022-07-29T19:05:18.476Z,26.24
2022-07-29T19:07:45.146Z,26.22
2022-07-29T19:10:12.308Z,26.26
2022-07-29T19:12:39.195Z,26.24
2022-07-29T19:15:07.616Z,26.35
2022-07-29T19:17:34.243Z,26.37
2022-07-29T19:20:00.960Z,26.39
2022-07-29T19:22:27.838Z,26.42
2022-07-29T19:24:54.463Z,26.35
2022-07-29T19:27:21.076Z,26.36
2022-07-29T19:29:47.768Z,26.35
2022-07-29T19:32:25.381Z,26.27
2022-07-29T19:35:11.296Z,26.27
2022-07-29T19:37:37.955Z,27.19
2022-07-29T19:40:06.312Z,27.61
2022-07-29T19:42:33.083Z,27.89
2022-07-29T19:45:00.055Z,28.00
2022-07-29T19:47:26.747Z,28.01
2022-07-29T19:49:53.348Z,27.91
2022-07-29T19:52:20.020Z,27.97
2022-07-29T19:54:46.598Z,27.89
2022-07-29T19:57:13.241Z,27.79
2022-07-29T19:59:41.117Z,27.82
2022-07-29T20:02:10.853Z,27.73
2022-07-29T20:04:38.656Z,27.63
2022-07-29T20:07:06.467Z,27.62
2022-07-29T20:09:33.270Z,27.44
2022-07-29T20:11:59.970Z,27.33
2022-07-29T20:14:26.622Z,27.23
2022-07-29T20:16:54.449Z,27.25
2022-07-29T20:19:21.403Z,27.09
2022-07-29T20:21:48.075Z,27.05
2022-07-29T20:24:14.678Z,27.02
2022-07-29T20:26:41.600Z,27.03
2022-07-29T20:29:08.344Z,26.93
2022-07-29T20:31:35.022Z,26.91
2022-07-29T20:34:02.003Z,26.89
2022-07-29T20:36:28.723Z,27.02
2022-07-29T20:38:56.150Z,26.89
2022-07-29T20:41:22.906Z,26.92
2022-07-29T20:43:52.791Z,26.72
2022-07-29T20:46:19.463Z,26.50
2022-07-29T20:48:47.219Z,26.58
2022-07-29T20:51:14.788Z,26.46
2022-07-29T20:53:41.826Z,26.30
2022-07-29T20:56:08.874Z,26.28
2022-07-29T20:58:36.611Z,26.00
2022-07-29T21:01:04.210Z,25.81
2022-07-29T21:03:32.517Z,25.69
2022-07-29T21:06:00.217Z,25.80
2022-07-29T21:08:27.293Z,25.54
2022-07-29T21:10:54.253Z,25.36
2022-07-29T21:13:22.416Z,25.03
2022-07-29T21:15:50.638Z,25.15
2022-07-29T21:18:37.191Z,25.03
2022-07-29T21:21:05.152Z,24.83
2022-07-29T21:23:31.814Z,24.73
2022-07-29T21:25:58.590Z,24.73
2022-07-29T21:28:29.511Z,24.69
2022-07-29T21:31:01.369Z,24.58
2022-07-29T21:33:29.994Z,24.49
2022-07-29T21:36:26.611Z,24.53
2022-07-29T21:38:44.058Z,24.19
2022-07-29T21:41:12.599Z,24.31
2022-07-29T21:43:41.852Z,24.17
2022-07-29T21:46:08.950Z,24.22
2022-07-29T21:48:35.642Z,23.93
2022-07-29T21:51:02.313Z,24.01
2022-07-29T21:53:28.971Z,23.81
2022-07-29T21:55:57.402Z,23.86
2022-07-29T21:58:24.760Z,23.81
2022-07-29T22:00:51.661Z,23.82
2022-07-29T22:03:18.542Z,23.67
2022-07-29T22:05:45.320Z,23.60
2022-07-29T22:08:12.024Z,23.60
2022-07-29T22:10:38.691Z,23.63
2022-07-29T22:13:05.363Z,23.50
2022-07-29T22:15:32.323Z,23.50
2022-07-29T22:17:59.603Z,23.47
2022-07-29T22:20:26.378Z,23.54
2022-07-29T22:22:53.965Z,23.48
2022-07-29T22:25:21.357Z,23.77
2022-07-29T22:27:48.004Z,24.05
2022-07-29T22:30:15.561Z,24.03
2022-07-29T22:32:43.123Z,24.14
2022-07-29T22:35:10.394Z,24.22
2022-07-29T22:37:37.469Z,24.21
2022-07-29T22:40:04.828Z,24.15
2022-07-29T22:42:31.517Z,24.19
2022-07-29T22:44:58.113Z,24.08
2022-07-29T22:47:39.043Z,24.16
2022-07-29T22:50:11.475Z,24.00
2022-07-29T22:52:38.084Z,24.05
2022-07-29T22:55:05.042Z,24.10
2022-07-29T22:57:31.740Z,23.97
2022-07-29T23:00:01.583Z,24.07
2022-07-29T23:02:28.540Z,23.94
2022-07-29T23:04:55.208Z,23.91
2022-07-29T23:07:21.810Z,23.70
2022-07-29T23:09:48.470Z,23.81
2022-07-29T23:12:15.091Z,23.82
2022-07-29T23:14:41.833Z,23.80
2022-07-29T23:17:08.517Z,23.75
2022-07-29T23:19:35.192Z,23.36
2022-07-29T23:22:01.807Z,23.52
2022-07-29T23:24:28.395Z,23.38
2022-07-29T23:26:55.090Z,23.36
2022-07-29T23:29:21.724Z,23.16
2022-07-29T23:31:48.539Z,23.09
2022-07-29T23:34:15.315Z,22.96
2022-07-29T23:36:42.428Z,22.88
2022-07-29T23:39:13.239Z,22.67
2022-07-29T23:41:40.055Z,22.89
2022-07-29T23:44:06.794Z,22.89
2022-07-29T23:46:33.484Z,22.80
2022-07-29T23:49:00.288Z,22.87
2022-07-29T23:51:29.072Z,22.75
2022-07-29T23:53:56.127Z,22.63
2022-07-29T23:56:23.381Z,22.48
2022-07-29T23:58:50.283Z,22.40
